Time;durP1;ratioP1;P1;durP2;ratioP2;P2;SDS_P1;SDS_P2;PMS_P1;PMS_P2;Temp;Humidity;BMP_temperature;BMP_pressure;BME280_temperature;BME280_humidity;BME280_pressure;Samples;Min_cycle;Max_cycle;Signal;HPM_P1;HPM_P2
2023/09/07 00:00:43;;;;;;;6.07;4.25;;;18.60;99.90;;;;;;5056278;28;20348;-65
2023/09/07 00:03:09;;;;;;;4.70;4.10;;;18.50;99.90;;;;;;5058613;28;20033;-65
2023/09/07 00:05:35;;;;;;;9.63;5.05;;;18.50;99.90;;;;;;5057186;28;20028;-65
2023/09/07 00:08:01;;;;;;;5.85;4.70;;;18.50;99.90;;;;;;5057467;28;20119;-65
2023/09/07 00:10:26;;;;;;;7.85;4.85;;;18.50;99.90;;;;;;5057203;28;20036;-65
2023/09/07 00:12:53;;;;;;;8.77;5.28;;;18.50;99.90;;;;;;5042680;28;20040;-65
2023/09/07 00:15:20;;;;;;;7.35;4.65;;;18.50;99.90;;;;;;5057335;28;20036;-65
2023/09/07 00:17:45;;;;;;;4.88;4.35;;;18.50;99.90;;;;;;5057920;28;20083;-65
2023/09/07 00:20:11;;;;;;;5.93;4.85;;;18.50;99.90;;;;;;5056155;28;20032;-65
2023/09/07 00:22:38;;;;;;;5.75;4.55;;;18.50;99.90;;;;;;5059108;28;20480;-66
2023/09/07 00:25:06;;;;;;;6.10;4.63;;;18.50;99.90;;;;;;5056674;28;20044;-65
2023/09/07 00:27:35;;;;;;;7.03;4.68;;;18.50;99.90;;;;;;5059513;28;20044;-65
2023/09/07 00:30:04;;;;;;;5.63;4.28;;;18.50;99.90;;;;;;5039097;28;20037;-65
2023/09/07 00:32:33;;;;;;;5.07;4.40;;;18.50;99.90;;;;;;5059628;28;20033;-65
2023/09/07 00:34:59;;;;;;;6.72;4.72;;;18.50;99.90;;;;;;5038873;28;20116;-65
2023/09/07 00:37:24;;;;;;;6.18;5.15;;;18.50;99.90;;;;;;5046118;28;20440;-65
2023/09/07 00:39:52;;;;;;;6.05;4.80;;;18.50;99.90;;;;;;5038689;28;20131;-65
2023/09/07 00:42:18;;;;;;;7.63;5.18;;;18.50;99.90;;;;;;5058297;28;20104;-65
2023/09/07 00:44:44;;;;;;;4.97;4.43;;;18.50;99.90;;;;;;5056494;28;20548;-65
2023/09/07 00:47:11;;;;;;;8.13;5.40;;;18.40;99.90;;;;;;5044589;28;20025;-65
2023/09/07 00:49:37;;;;;;;4.38;3.97;;;18.40;99.90;;;;;;5041010;28;20649;-65
2023/09/07 00:52:05;;;;;;;7.10;4.28;;;18.40;99.90;;;;;;5043788;28;20032;-65
2023/09/07 00:54:31;;;;;;;5.60;4.53;;;18.40;99.90;;;;;;5041434;28;20024;-65
2023/09/07 00:56:57;;;;;;;7.70;4.90;;;18.40;99.90;;;;;;5043794;28;20029;-65
2023/09/07 00:59:23;;;;;;;5.90;4.68;;;18.40;99.90;;;;;;5058985;28;20032;-65
2023/09/07 01:01:49;;;;;;;5.85;4.57;;;18.30;99.90;;;;;;5054039;28;20036;-65
2023/09/07 01:04:16;;;;;;;5.88;4.45;;;18.30;99.90;;;;;;5045208;28;20029;-65
2023/09/07 01:07:00;;;;;;;7.00;4.47;;;18.30;99.90;;;;;;5026067;28;20033;-65
2023/09/07 01:09:30;;;;;;;5.82;4.70;;;18.30;99.90;;;;;;5042305;28;20033;-65
2023/09/07 01:11:56;;;;;;;7.60;4.88;;;18.30;99.90;;;;;;5045078;28;20408;-65
2023/09/07 01:14:22;;;;;;;4.60;4.20;;;18.30;99.90;;;;;;5058371;28;20179;-65
2023/09/07 01:16:49;;;;;;;6.20;4.70;;;18.30;99.90;;;;;;5055044;28;20128;-65
2023/09/07 01:19:15;;;;;;;5.82;4.95;;;18.20;99.90;;;;;;5043409;28;20024;-65
2023/09/07 01:21:41;;;;;;;6.53;4.80;;;18.20;99.90;;;;;;5043365;28;20043;-65
2023/09/07 01:24:12;;;;;;;5.50;4.53;;;18.20;99.90;;;;;;5056718;28;20456;-65
2023/09/07 01:26:38;;;;;;;6.28;4.78;;;18.20;99.90;;;;;;5043602;28;20029;-65
2023/09/07 01:29:06;;;;;;;5.43;4.57;;;18.20;99.90;;;;;;5041840;28;20033;-65
2023/09/07 01:31:37;;;;;;;7.25;4.68;;;18.10;99.90;;;;;;5044311;28;20035;-65
2023/09/07 01:34:04;;;;;;;6.97;4.43;;;18.10;99.90;;;;;;5040364;28;20703;-65
2023/09/07 01:36:31;;;;;;;5.35;4.72;;;18.10;99.90;;;;;;5041327;28;20090;-65
2023/09/07 01:38:57;;;;;;;6.97;4.97;;;18.10;99.90;;;;;;5033073;28;20032;-65
2023/09/07 01:41:23;;;;;;;5.38;4.80;;;18.10;99.90;;;;;;5055990;28;20052;-65
2023/09/07 01:43:48;;;;;;;6.05;4.65;;;18.10;99.90;;;;;;5040148;28;20783;-65
2023/09/07 01:46:14;;;;;;;7.18;4.97;;;18.10;99.90;;;;;;5038539;28;20060;-65
2023/09/07 01:48:42;;;;;;;7.00;5.32;;;18.00;99.90;;;;;;5042565;28;20194;-65
2023/09/07 01:51:08;;;;;;;6.63;5.10;;;18.00;99.90;;;;;;5037779;28;20098;-65
2023/09/07 01:53:34;;;;;;;5.90;4.72;;;18.00;99.90;;;;;;5051649;28;20027;-65
2023/09/07 01:56:00;;;;;;;5.95;5.00;;;18.00;99.90;;;;;;5038428;28;20033;-65
2023/09/07 01:58:26;;;;;;;5.45;4.72;;;17.90;99.90;;;;;;5044875;28;20020;-65
2023/09/07 02:00:58;;;;;;;6.40;5.15;;;17.90;99.90;;;;;;5034800;28;20766;-65
2023/09/07 02:03:25;;;;;;;6.13;4.82;;;17.90;99.90;;;;;;5043683;28;20031;-65
2023/09/07 02:05:53;;;;;;;6.75;4.90;;;17.90;99.90;;;;;;5051371;28;20041;-65
2023/09/07 02:08:19;;;;;;;6.97;4.85;;;17.90;99.90;;;;;;5056764;28;20028;-65
2023/09/07 02:10:46;;;;;;;5.78;4.88;;;17.80;99.90;;;;;;5055033;28;20032;-65
2023/09/07 02:13:11;;;;;;;6.57;5.55;;;17.80;99.90;;;;;;5042750;28;20098;-65
2023/09/07 02:15:38;;;;;;;6.65;5.35;;;17.80;99.90;;;;;;5038998;28;20524;-65
2023/09/07 02:18:07;;;;;;;6.57;4.88;;;17.80;99.90;;;;;;5041829;28;20117;-65
2023/09/07 02:20:33;;;;;;;6.05;4.97;;;17.80;99.90;;;;;;5039846;28;20074;-65
2023/09/07 02:22:59;;;;;;;5.80;4.75;;;17.70;99.90;;;;;;5042010;28;20067;-65
2023/09/07 02:25:25;;;;;;;6.25;4.82;;;17.70;99.90;;;;;;5040911;28;20028;-65
2023/09/07 02:27:51;;;;;;;8.23;5.75;;;17.70;99.90;;;;;;5028286;28;20475;-65
2023/09/07 02:30:17;;;;;;;5.50;4.57;;;17.70;99.90;;;;;;5057294;28;20674;-65
2023/09/07 02:32:43;;;;;;;7.68;5.13;;;17.70;99.90;;;;;;5030712;28;20417;-65
2023/09/07 02:35:09;;;;;;;7.45;5.53;;;17.70;99.90;;;;;;5041801;28;20068;-65
2023/09/07 02:37:37;;;;;;;6.00;4.88;;;17.60;99.90;;;;;;5042766;28;20463;-65
2023/09/07 02:40:09;;;;;;;6.53;5.20;;;17.60;99.90;;;;;;5040048;28;20421;-65
2023/09/07 02:42:35;;;;;;;6.88;5.13;;;17.60;99.90;;;;;;5042740;28;20028;-65
2023/09/07 02:45:01;;;;;;;7.05;5.65;;;17.50;99.90;;;;;;5039801;28;20033;-65
2023/09/07 02:47:27;;;;;;;5.47;4.78;;;17.50;99.90;;;;;;5054291;28;20033;-65
2023/09/07 02:49:53;;;;;;;7.38;5.55;;;17.50;99.90;;;;;;5039604;28;20079;-65
2023/09/07 02:52:19;;;;;;;6.55;5.88;;;17.50;99.90;;;;;;5040653;28;20024;-65
2023/09/07 02:54:45;;;;;;;7.30;6.03;;;17.50;99.90;;;;;;5038665;28;20029;-65
2023/09/07 02:57:12;;;;;;;10.63;6.93;;;17.50;99.90;;;;;;5035227;28;20029;-65
2023/09/07 02:59:38;;;;;;;7.40;6.43;;;17.40;99.90;;;;;;5041461;28;20055;-65
2023/09/07 03:02:04;;;;;;;8.88;6.95;;;17.40;99.90;;;;;;5040784;28;20526;-65
2023/09/07 03:04:30;;;;;;;12.05;7.63;;;17.40;99.90;;;;;;5042098;28;20115;-65
2023/09/07 03:06:56;;;;;;;9.40;7.90;;;17.30;99.90;;;;;;5050856;28;20079;-65
2023/09/07 03:09:22;;;;;;;10.18;7.60;;;17.40;99.90;;;;;;5054010;28;20048;-65
2023/09/07 03:11:48;;;;;;;10.52;7.88;;;17.30;99.90;;;;;;5036397;28;20032;-65
2023/09/07 03:14:14;;;;;;;9.35;7.70;;;17.30;99.90;;;;;;5042384;28;20112;-65
2023/09/07 03:16:40;;;;;;;7.82;6.95;;;17.30;99.90;;;;;;5036505;28;20032;-65
2023/09/07 03:19:08;;;;;;;7.78;6.28;;;17.30;99.90;;;;;;5053534;28;20037;-65
2023/09/07 03:21:34;;;;;;;8.40;6.18;;;17.30;99.90;;;;;;5038111;28;20038;-65
2023/09/07 03:23:59;;;;;;;7.95;6.20;;;17.30;99.90;;;;;;5052600;28;20128;-65
2023/09/07 03:26:26;;;;;;;11.77;6.35;;;17.30;99.90;;;;;;5038634;28;20453;-65
2023/09/07 03:28:52;;;;;;;6.88;5.88;;;17.40;99.90;;;;;;5040196;28;20037;-65
2023/09/07 03:31:19;;;;;;;9.68;6.18;;;17.30;99.90;;;;;;5039997;28;20032;-65
2023/09/07 03:33:45;;;;;;;8.70;6.55;;;17.30;99.90;;;;;;5033278;28;20033;-65
2023/09/07 03:36:14;;;;;;;7.88;6.28;;;17.30;99.90;;;;;;5055235;28;20057;-65
2023/09/07 03:38:41;;;;;;;9.40;6.90;;;17.30;99.90;;;;;;5040451;28;20056;-65
2023/09/07 03:41:07;;;;;;;8.20;6.72;;;17.30;99.90;;;;;;5054819;28;20052;-65
2023/09/07 03:43:33;;;;;;;7.38;6.25;;;17.30;99.90;;;;;;5041600;28;20032;-65
2023/09/07 03:45:59;;;;;;;7.40;6.03;;;17.30;99.90;;;;;;5038348;28;20029;-65
2023/09/07 03:48:25;;;;;;;8.98;6.82;;;17.30;99.90;;;;;;5053704;28;20435;-65
2023/09/07 03:50:51;;;;;;;8.68;6.70;;;17.30;99.90;;;;;;5038421;28;20052;-65
2023/09/07 03:53:17;;;;;;;9.23;7.05;;;17.30;99.90;;;;;;5039724;28;20025;-65
2023/09/07 03:55:44;;;;;;;10.23;6.93;;;17.30;99.90;;;;;;5039465;28;20029;-65
2023/09/07 03:58:12;;;;;;;9.23;6.60;;;17.20;99.90;;;;;;5038551;28;20078;-65
2023/09/07 04:00:43;;;;;;;8.07;6.25;;;17.30;99.90;;;;;;5040028;28;20032;-65
2023/09/07 04:03:10;;;;;;;9.35;6.32;;;17.30;99.90;;;;;;5038557;28;20043;-65
2023/09/07 04:05:39;;;;;;;10.05;6.72;;;17.30;99.90;;;;;;5040551;28;20032;-65
2023/09/07 04:08:06;;;;;;;8.50;6.45;;;17.20;99.90;;;;;;5038510;28;20038;-65
2023/09/07 04:10:31;;;;;;;7.50;6.30;;;17.20;99.90;;;;;;5055456;28;20038;-65
2023/09/07 04:12:57;;;;;;;8.32;6.78;;;17.20;99.90;;;;;;5051856;28;20036;-65
2023/09/07 04:15:25;;;;;;;7.78;6.20;;;17.20;99.90;;;;;;5055495;28;20060;-65
2023/09/07 04:17:51;;;;;;;9.05;6.00;;;17.20;99.90;;;;;;5041028;28;20044;-65
2023/09/07 04:20:17;;;;;;;8.57;5.80;;;17.20;99.90;;;;;;5041595;28;20473;-65
2023/09/07 04:22:43;;;;;;;8.27;7.00;;;17.10;99.90;;;;;;5038868;28;20266;-65
2023/09/07 04:25:09;;;;;;;7.65;6.20;;;17.10;99.90;;;;;;5040346;28;20489;-65
2023/09/07 04:27:34;;;;;;;11.50;6.70;;;17.10;99.90;;;;;;5035846;28;20040;-64
2023/09/07 04:30:00;;;;;;;6.93;5.75;;;17.10;99.90;;;;;;5050414;28;20068;-65
2023/09/07 04:32:27;;;;;;;8.75;6.55;;;17.10;99.90;;;;;;5036846;28;20020;-65
2023/09/07 04:34:58;;;;;;;8.75;6.07;;;17.10;99.90;;;;;;5039634;28;20055;-65
2023/09/07 04:37:24;;;;;;;9.07;5.95;;;17.10;99.90;;;;;;5054217;28;20028;-65
2023/09/07 04:39:53;;;;;;;7.53;5.97;;;17.10;99.90;;;;;;5043424;28;20504;-65
2023/09/07 04:42:20;;;;;;;11.23;6.35;;;17.10;99.90;;;;;;5042197;28;20039;-65
2023/09/07 04:44:47;;;;;;;7.95;6.18;;;17.10;99.90;;;;;;5055881;28;20024;-65
2023/09/07 04:47:15;;;;;;;9.60;6.93;;;17.10;99.90;;;;;;5056894;28;20511;-65
2023/09/07 04:49:41;;;;;;;9.52;6.57;;;17.10;99.90;;;;;;5043302;28;20051;-65
2023/09/07 04:52:09;;;;;;;8.52;6.68;;;17.10;99.90;;;;;;5042607;28;20048;-65
2023/09/07 04:54:35;;;;;;;10.32;6.63;;;17.10;99.90;;;;;;5043783;28;20466;-65
2023/09/07 04:57:00;;;;;;;8.98;7.00;;;17.10;99.90;;;;;;5041374;28;20057;-65
2023/09/07 04:59:26;;;;;;;9.00;6.95;;;17.20;99.90;;;;;;5043784;28;20495;-65
2023/09/07 05:01:52;;;;;;;8.98;6.32;;;17.20;99.90;;;;;;5055441;28;20033;-65
2023/09/07 05:04:18;;;;;;;7.43;6.35;;;17.20;99.90;;;;;;5056382;28;20136;-65
2023/09/07 05:06:43;;;;;;;6.60;5.43;;;17.20;99.90;;;;;;5041693;28;20253;-65
2023/09/07 05:09:09;;;;;;;8.52;6.05;;;17.20;99.90;;;;;;5055476;28;20511;-65
2023/09/07 05:11:36;;;;;;;8.05;5.82;;;17.30;99.90;;;;;;5043198;28;20025;-65
2023/09/07 05:14:02;;;;;;;8.18;6.10;;;17.20;99.90;;;;;;5042274;28;20017;-65
2023/09/07 05:16:28;;;;;;;6.68;5.80;;;17.20;99.90;;;;;;5058573;28;20388;-65
2023/09/07 05:18:55;;;;;;;6.93;5.80;;;17.30;99.90;;;;;;5043126;28;20052;-64
2023/09/07 05:21:21;;;;;;;8.43;5.80;;;17.20;99.90;;;;;;5044976;28;20025;-65
2023/09/07 05:23:47;;;;;;;8.77;6.05;;;17.20;99.90;;;;;;5041109;28;20039;-65
2023/09/07 05:26:12;;;;;;;7.38;6.00;;;17.20;99.90;;;;;;5043812;28;20128;-65
2023/09/07 05:28:41;;;;;;;7.60;5.95;;;17.20;99.90;;;;;;5041892;28;20662;-65
2023/09/07 05:31:08;;;;;;;7.60;6.03;;;17.20;99.90;;;;;;5030741;28;20504;-65
2023/09/07 05:33:34;;;;;;;8.45;6.10;;;17.30;99.90;;;;;;5041494;28;20032;-64
2023/09/07 05:36:01;;;;;;;10.07;6.18;;;17.20;99.90;;;;;;5036074;28;20029;-65
2023/09/07 05:38:28;;;;;;;8.30;5.90;;;17.20;99.90;;;;;;5040469;28;20036;-65
2023/09/07 05:40:54;;;;;;;7.88;5.80;;;17.30;99.90;;;;;;5042751;28;20029;-65
2023/09/07 05:43:21;;;;;;;8.02;5.35;;;17.30;99.90;;;;;;5038363;28;20033;-65
2023/09/07 05:45:47;;;;;;;9.98;6.32;;;17.30;99.90;;;;;;5043848;28;20040;-65
2023/09/07 05:48:16;;;;;;;9.05;5.68;;;17.30;99.90;;;;;;5037558;28;20439;-65
2023/09/07 05:50:42;;;;;;;8.98;6.03;;;17.40;99.90;;;;;;5041904;28;20688;-65
2023/09/07 05:53:08;;;;;;;10.60;6.43;;;17.40;99.90;;;;;;5037882;28;20037;-65
2023/09/07 05:55:34;;;;;;;8.15;5.78;;;17.40;99.90;;;;;;5045256;28;20020;-65
2023/09/07 05:58:05;;;;;;;7.28;5.45;;;17.50;99.90;;;;;;5038074;28;20021;-65
2023/09/07 06:00:32;;;;;;;6.50;5.28;;;17.50;99.90;;;;;;5045513;28;20039;-65
2023/09/07 06:02:58;;;;;;;8.45;5.82;;;17.60;99.90;;;;;;5021355;28;20034;-65
2023/09/07 06:05:23;;;;;;;7.32;5.55;;;17.70;99.90;;;;;;5056731;28;20033;-65
2023/09/07 06:07:50;;;;;;;8.23;5.65;;;17.70;99.90;;;;;;5038546;28;20032;-65
2023/09/07 06:10:17;;;;;;;8.43;5.47;;;17.80;99.90;;;;;;5043873;28;20091;-64
2023/09/07 06:12:44;;;;;;;6.10;5.45;;;17.90;99.90;;;;;;5039482;28;20029;-65
2023/09/07 06:15:10;;;;;;;7.75;5.18;;;18.00;99.90;;;;;;5043214;28;20067;-65
2023/09/07 06:17:36;;;;;;;7.88;5.20;;;18.10;99.90;;;;;;5039315;28;20032;-65
2023/09/07 06:20:03;;;;;;;7.47;5.53;;;18.20;99.90;;;;;;5041778;28;20513;-65
2023/09/07 06:22:28;;;;;;;6.60;5.40;;;18.30;99.90;;;;;;5041849;28;20139;-65
2023/09/07 06:24:55;;;;;;;9.38;5.57;;;18.50;99.90;;;;;;5038861;28;20060;-65
2023/09/07 06:27:21;;;;;;;6.35;5.40;;;18.50;99.90;;;;;;5042343;28;20030;-65
2023/09/07 06:29:47;;;;;;;6.47;4.97;;;18.60;99.90;;;;;;5039016;28;20036;-65
2023/09/07 06:32:13;;;;;;;9.95;5.72;;;18.60;99.90;;;;;;5041458;28;20086;-65
2023/09/07 06:34:39;;;;;;;7.68;5.90;;;18.70;99.90;;;;;;5040311;28;20075;-65
2023/09/07 06:37:05;;;;;;;7.00;5.60;;;18.70;99.90;;;;;;5040562;28;20499;-65
2023/09/07 06:39:31;;;;;;;9.00;5.82;;;18.80;99.90;;;;;;5039461;28;20028;-65
2023/09/07 06:41:57;;;;;;;10.23;5.85;;;18.90;99.90;;;;;;5054621;28;20053;-65
2023/09/07 06:44:28;;;;;;;6.55;5.30;;;19.00;99.90;;;;;;5038666;28;20029;-65
2023/09/07 06:46:54;;;;;;;8.43;4.95;;;19.20;99.90;;;;;;5041308;28;20122;-65
2023/09/07 06:49:20;;;;;;;6.25;5.18;;;19.30;99.90;;;;;;5037834;28;20441;-65
2023/09/07 06:51:46;;;;;;;12.07;6.00;;;19.40;99.90;;;;;;5042440;28;20058;-65
2023/09/07 06:54:13;;;;;;;6.63;5.18;;;19.50;99.90;;;;;;5053219;28;20040;-65
2023/09/07 06:56:40;;;;;;;7.10;5.30;;;19.60;99.90;;;;;;5038676;28;20059;-65
2023/09/07 06:59:06;;;;;;;10.85;5.65;;;19.90;99.90;;;;;;5036845;28;20043;-65
2023/09/07 07:01:32;;;;;;;7.78;4.65;;;20.20;99.90;;;;;;5044138;28;20055;-65
2023/09/07 07:03:58;;;;;;;9.40;5.50;;;20.30;99.90;;;;;;5052811;28;20033;-65
2023/09/07 07:06:24;;;;;;;5.78;4.95;;;20.50;99.90;;;;;;5042465;28;20032;-65
2023/09/07 07:08:51;;;;;;;8.55;4.90;;;20.60;99.90;;;;;;5037008;28;20086;-65
2023/09/07 07:11:17;;;;;;;7.47;4.25;;;20.80;99.90;;;;;;5042467;28;20173;-65
2023/09/07 07:13:43;;;;;;;7.55;4.65;;;21.00;99.90;;;;;;5038095;28;20032;-65
2023/09/07 07:16:09;;;;;;;7.85;4.55;;;21.30;99.90;;;;;;5041667;28;20488;-66
2023/09/07 07:18:35;;;;;;;8.02;4.90;;;21.60;99.30;;;;;;5039210;28;20020;-65
2023/09/07 07:21:01;;;;;;;6.53;4.20;;;22.00;98.70;;;;;;5040795;28;20801;-65
2023/09/07 07:23:27;;;;;;;8.50;5.10;;;22.40;97.90;;;;;;5038861;28;20131;-66
2023/09/07 07:25:52;;;;;;;6.53;4.80;;;22.60;96.40;;;;;;5041018;28;20047;-65
2023/09/07 07:28:18;;;;;;;7.15;4.22;;;22.60;96.30;;;;;;5041559;28;20574;-65
2023/09/07 07:30:44;;;;;;;5.70;4.20;;;22.60;96.30;;;;;;5041376;28;20029;-65
2023/09/07 07:33:13;;;;;;;8.73;4.70;;;22.60;96.20;;;;;;5039545;28;20032;-65
2023/09/07 07:35:39;;;;;;;7.20;3.95;;;22.70;96.10;;;;;;5039148;28;20485;-65
2023/09/07 07:38:08;;;;;;;5.20;4.07;;;22.70;95.20;;;;;;5033417;28;20179;-66
2023/09/07 07:40:35;;;;;;;7.53;4.82;;;22.70;95.40;;;;;;5040498;28;20531;-65
2023/09/07 07:43:02;;;;;;;6.03;3.95;;;22.80;95.20;;;;;;5053147;28;20025;-66
2023/09/07 07:45:29;;;;;;;6.85;4.55;;;22.80;95.20;;;;;;5053965;28;20678;-65
2023/09/07 07:47:55;;;;;;;8.60;4.88;;;22.80;95.00;;;;;;5039146;28;20041;-65
2023/09/07 07:50:22;;;;;;;8.95;4.35;;;22.80;95.00;;;;;;5033545;28;20029;-65
2023/09/07 07:52:48;;;;;;;7.80;4.40;;;22.70;94.80;;;;;;5040358;28;20025;-65
2023/09/07 07:55:14;;;;;;;8.57;4.57;;;22.60;94.80;;;;;;5037800;28;20025;-65
2023/09/07 07:57:40;;;;;;;6.82;4.05;;;22.70;95.00;;;;;;5039462;28;20082;-66
2023/09/07 08:00:09;;;;;;;6.05;3.85;;;22.70;95.00;;;;;;5035777;28;20035;-65
2023/09/07 08:02:46;;;;;;;5.05;3.83;;;22.70;95.10;;;;;;5036785;28;20029;-66
2023/09/07 08:05:13;;;;;;;5.18;4.25;;;22.80;94.30;;;;;;5035567;28;20037;-65
2023/09/07 08:07:39;;;;;;;6.57;4.25;;;22.70;94.60;;;;;;5035954;28;20201;-65
2023/09/07 08:10:05;;;;;;;6.35;4.55;;;22.80;94.90;;;;;;5034985;28;20127;-65
2023/09/07 08:12:31;;;;;;;7.13;4.30;;;22.90;94.60;;;;;;5059421;28;20034;-66
2023/09/07 08:14:57;;;;;;;5.68;3.97;;;23.00;94.40;;;;;;5056607;28;20579;-66
2023/09/07 08:17:24;;;;;;;6.97;4.45;;;23.00;94.10;;;;;;5046294;28;20496;-66
2023/09/07 08:19:56;;;;;;;5.05;3.95;;;23.10;94.30;;;;;;5039822;28;20029;-65
2023/09/07 08:22:23;;;;;;;8.63;4.30;;;23.20;94.20;;;;;;5025283;28;20037;-65
2023/09/07 08:24:50;;;;;;;4.95;4.13;;;23.20;93.40;;;;;;5056689;28;20543;-65
2023/09/07 08:27:18;;;;;;;8.82;4.20;;;23.40;93.20;;;;;;5028877;28;20037;-65
2023/09/07 08:29:48;;;;;;;6.75;3.95;;;23.50;93.00;;;;;;5040034;28;20043;-65
2023/09/07 08:32:14;;;;;;;5.90;4.00;;;23.50;93.40;;;;;;5056619;28;20481;-65
2023/09/07 08:34:41;;;;;;;6.43;3.65;;;23.60;93.30;;;;;;5057334;28;20040;-65
2023/09/07 08:37:08;;;;;;;9.05;4.45;;;23.70;93.50;;;;;;5056165;28;20040;-65
2023/09/07 08:39:35;;;;;;;4.90;3.88;;;23.80;92.20;;;;;;5058540;28;20131;-66
2023/09/07 08:42:00;;;;;;;6.18;3.70;;;23.90;91.70;;;;;;5055671;28;20033;-65
2023/09/07 08:44:28;;;;;;;6.47;4.03;;;24.00;92.10;;;;;;5059404;28;20034;-65
2023/09/07 08:46:55;;;;;;;7.53;4.07;;;24.20;91.40;;;;;;5055415;28;20105;-65
2023/09/07 08:49:23;;;;;;;7.78;4.28;;;24.30;91.40;;;;;;5055131;28;20037;-65
2023/09/07 08:51:50;;;;;;;9.05;3.83;;;24.40;90.70;;;;;;5052128;28;20034;-65
2023/09/07 08:54:15;;;;;;;6.10;3.90;;;24.50;90.40;;;;;;5055918;28;20074;-65
2023/09/07 08:56:41;;;;;;;6.18;3.60;;;24.60;90.60;;;;;;5056105;28;20025;-65
2023/09/07 08:59:08;;;;;;;5.43;3.72;;;24.80;90.10;;;;;;5056605;28;20512;-65
2023/09/07 09:01:33;;;;;;;5.82;3.90;;;25.00;87.60;;;;;;5056132;28;20033;-66
2023/09/07 09:03:59;;;;;;;6.55;3.55;;;25.20;86.60;;;;;;5055897;28;20355;-65
2023/09/07 09:06:25;;;;;;;6.63;3.80;;;25.30;87.20;;;;;;5056133;28;20032;-66
2023/09/07 09:08:53;;;;;;;5.60;3.53;;;25.50;85.50;;;;;;5056682;28;20036;-66
2023/09/07 09:11:20;;;;;;;6.40;3.35;;;25.60;84.00;;;;;;5056390;28;20455;-65
2023/09/07 09:13:47;;;;;;;4.28;2.97;;;25.70;82.90;;;;;;5057324;28;20401;-65
2023/09/07 09:16:14;;;;;;;4.13;3.28;;;25.70;84.50;;;;;;5038037;28;20477;-65
2023/09/07 09:18:52;;;;;;;4.03;3.05;;;25.90;83.30;;;;;;5058203;28;20448;-65
2023/09/07 09:21:20;;;;;;;8.30;3.85;;;26.00;83.40;;;;;;5038753;28;20043;-65
2023/09/07 09:23:49;;;;;;;4.95;3.20;;;26.00;80.90;;;;;;5055658;28;20056;-66
2023/09/07 09:26:15;;;;;;;4.72;3.50;;;26.00;79.20;;;;;;5053524;28;20028;-65
2023/09/07 09:28:42;;;;;;;5.18;3.38;;;26.00;78.90;;;;;;5057961;28;20043;-65
2023/09/07 09:31:12;;;;;;;3.50;2.90;;;26.00;79.50;;;;;;5055468;28;20123;-65
2023/09/07 09:33:41;;;;;;;6.55;3.40;;;26.10;79.10;;;;;;5058229;28;20028;-65
2023/09/07 09:36:07;;;;;;;5.75;3.40;;;26.10;78.40;;;;;;5053920;28;20016;-65
2023/09/07 09:38:34;;;;;;;5.05;3.22;;;26.20;78.50;;;;;;5057762;28;20042;-65
2023/09/07 09:41:00;;;;;;;5.60;3.03;;;26.30;77.40;;;;;;5054802;28;20095;-65
2023/09/07 09:43:26;;;;;;;6.50;3.70;;;26.40;75.80;;;;;;5057535;28;20028;-66
2023/09/07 09:45:53;;;;;;;4.32;3.20;;;26.50;76.20;;;;;;5055530;28;20037;-65
2023/09/07 09:48:22;;;;;;;12.48;3.70;;;26.50;76.10;;;;;;5056231;28;20025;-66
2023/09/07 09:50:49;;;;;;;4.30;3.10;;;26.60;73.80;;;;;;5055199;28;20028;-65
2023/09/07 09:53:18;;;;;;;4.65;3.05;;;26.70;73.50;;;;;;5052338;28;20025;-65
2023/09/07 09:55:48;;;;;;;6.93;3.70;;;26.80;72.30;;;;;;5055756;28;20025;-66
2023/09/07 09:58:15;;;;;;;5.60;3.67;;;26.90;72.20;;;;;;5054900;28;20027;-65
2023/09/07 10:00:44;;;;;;;8.07;3.60;;;27.00;71.10;;;;;;5056065;28;20041;-66
2023/09/07 10:03:23;;;;;;;4.65;3.13;;;27.00;69.90;;;;;;5054526;28;20041;-66
2023/09/07 10:05:49;;;;;;;5.40;3.00;;;27.00;71.00;;;;;;5054778;28;20310;-66
2023/09/07 10:08:18;;;;;;;5.35;3.33;;;27.10;70.00;;;;;;5020228;28;20084;-66
2023/09/07 10:10:46;;;;;;;5.63;3.50;;;27.20;68.00;;;;;;5055936;28;20025;-65
2023/09/07 10:13:15;;;;;;;5.28;3.08;;;27.50;68.50;;;;;;5054701;28;20036;-65
2023/09/07 10:15:40;;;;;;;5.88;3.40;;;27.90;65.70;;;;;;5056126;28;20033;-66
2023/09/07 10:18:12;;;;;;;6.15;3.35;;;28.10;65.20;;;;;;5053927;28;20033;-65
2023/09/07 10:20:48;;;;;;;9.98;3.78;;;28.00;64.60;;;;;;5056637;28;20108;-65
2023/09/07 10:23:14;;;;;;;4.78;3.10;;;27.90;64.10;;;;;;5054568;28;20037;-66
2023/09/07 10:25:40;;;;;;;8.50;3.63;;;27.90;66.50;;;;;;5056364;28;20657;-65
2023/09/07 10:28:16;;;;;;;5.30;3.78;;;28.10;64.80;;;;;;5054330;28;20704;-66
2023/09/07 10:30:42;;;;;;;5.75;3.40;;;28.30;65.60;;;;;;5053446;28;20044;-66
2023/09/07 10:33:19;;;;;;;3.17;2.72;;;28.30;64.20;;;;;;5053731;28;20080;-65
2023/09/07 10:35:46;;;;;;;3.97;2.65;;;28.30;65.00;;;;;;5054899;28;20043;-65
2023/09/07 10:38:14;;;;;;;4.57;2.95;;;28.20;64.00;;;;;;5054193;28;20083;-66
2023/09/07 10:40:43;;;;;;;5.28;2.85;;;28.20;63.90;;;;;;5056093;28;20036;-65
2023/09/07 10:43:09;;;;;;;5.57;3.20;;;28.20;64.10;;;;;;5053658;28;20036;-65
2023/09/07 10:45:35;;;;;;;4.00;3.22;;;28.20;64.30;;;;;;5056617;28;20028;-66
2023/09/07 10:48:03;;;;;;;7.40;3.47;;;28.30;64.60;;;;;;5053172;28;20040;-65
2023/09/07 10:50:29;;;;;;;4.72;3.25;;;28.40;63.30;;;;;;5056630;28;20052;-66
2023/09/07 10:52:55;;;;;;;6.30;3.30;;;28.60;62.70;;;;;;5053554;28;20033;-65
2023/09/07 10:55:21;;;;;;;5.50;2.90;;;28.60;62.70;;;;;;5053303;28;20112;-65
2023/09/07 10:57:47;;;;;;;3.95;2.88;;;28.60;62.50;;;;;;5053928;28;20024;-66
2023/09/07 11:00:14;;;;;;;10.98;3.30;;;28.70;63.20;;;;;;5054620;28;20040;-66
2023/09/07 11:02:43;;;;;;;4.60;3.00;;;28.80;63.50;;;;;;5054564;28;20032;-65
2023/09/07 11:05:10;;;;;;;5.68;3.00;;;28.70;60.70;;;;;;5053517;28;20866;-65
2023/09/07 11:07:37;;;;;;;10.15;3.35;;;28.70;60.80;;;;;;5054674;28;20107;-65
2023/09/07 11:10:06;;;;;;;5.57;3.40;;;28.70;63.20;;;;;;5053867;28;20132;-65
2023/09/07 11:12:38;;;;;;;8.65;3.08;;;28.80;62.00;;;;;;5053988;28;20025;-66
2023/09/07 11:15:04;;;;;;;5.70;3.33;;;28.80;60.90;;;;;;5053666;28;20076;-66
2023/09/07 11:17:30;;;;;;;9.05;3.15;;;28.70;59.70;;;;;;5054145;28;20021;-66
2023/09/07 11:19:56;;;;;;;5.22;3.60;;;28.80;61.90;;;;;;5053753;28;20381;-66
2023/09/07 11:22:22;;;;;;;5.35;3.47;;;28.80;61.70;;;;;;5053596;28;20136;-65
2023/09/07 11:24:48;;;;;;;4.60;3.05;;;28.70;61.90;;;;;;5054773;28;20055;-66
2023/09/07 11:27:17;;;;;;;3.55;2.92;;;28.70;61.50;;;;;;5052595;28;20130;-66
2023/09/07 11:29:52;;;;;;;4.88;2.83;;;28.70;59.80;;;;;;5049706;28;20044;-65
2023/09/07 11:32:21;;;;;;;5.85;3.47;;;28.70;58.70;;;;;;5052114;28;20032;-66
2023/09/07 11:34:51;;;;;;;7.00;3.05;;;28.70;61.00;;;;;;5055344;28;20029;-65
2023/09/07 11:37:23;;;;;;;6.63;3.00;;;28.60;58.10;;;;;;5051537;28;20032;-66
2023/09/07 11:39:48;;;;;;;5.72;3.20;;;28.60;59.10;;;;;;5048770;28;20105;-65
2023/09/07 11:42:14;;;;;;;5.45;3.20;;;28.60;60.00;;;;;;5052396;28;20786;-65
2023/09/07 11:44:40;;;;;;;5.05;3.20;;;28.80;60.60;;;;;;5056149;28;20084;-66
2023/09/07 11:47:06;;;;;;;4.40;3.00;;;28.90;58.20;;;;;;5051670;28;20037;-65
2023/09/07 11:49:32;;;;;;;4.85;2.83;;;29.00;58.40;;;;;;5055490;28;20032;-65
2023/09/07 11:51:58;;;;;;;13.60;3.63;;;29.00;58.30;;;;;;5052257;28;20041;-65
2023/09/07 11:54:24;;;;;;;3.35;2.75;;;29.00;56.80;;;;;;5054641;28;20033;-65
2023/09/07 11:56:50;;;;;;;2.85;2.55;;;29.00;57.50;;;;;;5056774;28;20033;-65
2023/09/07 11:59:17;;;;;;;3.92;2.90;;;29.10;57.50;;;;;;5053221;28;20037;-65
2023/09/07 12:01:43;;;;;;;3.58;2.90;;;29.20;56.90;;;;;;5054343;28;20037;-65
2023/09/07 12:04:09;;;;;;;5.72;2.83;;;29.20;58.00;;;;;;5052528;28;20037;-65
2023/09/07 12:06:36;;;;;;;5.45;3.15;;;29.20;58.30;;;;;;5055493;28;20063;-66
2023/09/07 12:09:09;;;;;;;3.88;3.00;;;29.30;55.40;;;;;;5052575;28;20124;-65
2023/09/07 12:11:35;;;;;;;3.55;2.67;;;29.30;56.00;;;;;;5050923;28;20032;-65
2023/09/07 12:14:01;;;;;;;4.75;2.83;;;29.40;55.90;;;;;;5052259;28;20554;-65
2023/09/07 12:16:28;;;;;;;5.28;3.10;;;29.40;56.60;;;;;;5055912;28;20029;-65
2023/09/07 12:18:54;;;;;;;3.35;2.72;;;29.40;55.80;;;;;;5052425;28;20128;-66
2023/09/07 12:21:20;;;;;;;3.28;2.25;;;29.40;56.00;;;;;;5055412;28;20046;-65
2023/09/07 12:23:46;;;;;;;3.70;2.60;;;29.50;56.80;;;;;;5052872;28;20037;-65
2023/09/07 12:26:14;;;;;;;2.53;2.33;;;29.50;55.10;;;;;;5053621;28;20036;-66
2023/09/07 12:28:40;;;;;;;4.53;2.80;;;29.50;56.30;;;;;;5053703;28;20033;-65
2023/09/07 12:31:05;;;;;;;4.03;2.70;;;29.40;53.80;;;;;;5053151;28;20078;-65
2023/09/07 12:33:32;;;;;;;4.07;2.80;;;29.50;55.00;;;;;;5053452;28;20086;-66
2023/09/07 12:35:58;;;;;;;4.53;3.10;;;29.50;54.10;;;;;;5053505;28;20036;-65
2023/09/07 12:38:28;;;;;;;3.55;2.83;;;29.40;54.10;;;;;;5048974;28;20021;-65
2023/09/07 12:40:54;;;;;;;4.32;2.90;;;29.30;55.20;;;;;;5053982;28;20064;-65
2023/09/07 12:43:20;;;;;;;3.72;2.60;;;29.30;55.20;;;;;;5052806;28;20075;-65